Time;durP1;ratioP1;P1;durP2;ratioP2;P2;SDS_P1;SDS_P2;PMS_P1;PMS_P2;Temp;Humidity;BMP_temperature;BMP_pressure;BME280_temperature;BME280_humidity;BME280_pressure;Samples;Min_cycle;Max_cycle;Signal;HPM_P1;HPM_P2
2022/02/17 00:01:02;;;;;;;11.73;2.55;;;10.30;80.40;;;;;;5062317;28;20392;-86
2022/02/17 00:03:28;;;;;;;11.98;2.40;;;10.40;79.70;;;;;;5062795;28;20032;-86
2022/02/17 00:05:56;;;;;;;10.63;2.47;;;10.30;79.90;;;;;;5061145;28;20049;-85
2022/02/17 00:08:22;;;;;;;10.05;2.35;;;10.30;79.40;;;;;;5065828;28;20024;-85
2022/02/17 00:10:47;;;;;;;9.18;2.28;;;10.10;80.70;;;;;;5065053;28;20455;-85
2022/02/17 00:13:13;;;;;;;14.23;2.28;;;10.10;80.50;;;;;;5067754;28;20115;-86
2022/02/17 00:15:38;;;;;;;15.07;2.65;;;10.20;80.10;;;;;;5071322;28;20127;-85
2022/02/17 00:18:13;;;;;;;7.78;2.20;;;10.30;79.20;;;;;;5065378;28;20033;-85
2022/02/17 00:20:38;;;;;;;8.13;2.55;;;10.30;79.00;;;;;;5069571;28;20021;-85
2022/02/17 00:23:04;;;;;;;13.73;2.35;;;10.20;79.00;;;;;;5069346;28;20037;-85
2022/02/17 00:25:29;;;;;;;12.18;1.88;;;10.30;78.10;;;;;;5063207;28;20034;-85
2022/02/17 00:27:55;;;;;;;13.85;2.70;;;10.30;78.20;;;;;;5081414;28;20035;-86
2022/02/17 00:30:21;;;;;;;10.30;2.50;;;10.20;78.50;;;;;;5080230;28;20027;-86
2022/02/17 00:32:46;;;;;;;12.13;2.63;;;10.20;78.60;;;;;;5062012;28;20021;-85
2022/02/17 00:35:12;;;;;;;13.68;2.40;;;10.30;77.00;;;;;;5063522;28;20052;-85
2022/02/17 00:37:37;;;;;;;12.45;2.85;;;10.30;77.20;;;;;;5068209;28;20036;-85
2022/02/17 00:40:04;;;;;;;19.35;2.58;;;10.30;76.90;;;;;;5081206;28;20029;-85
2022/02/17 00:42:29;;;;;;;13.30;2.33;;;10.20;78.10;;;;;;5067324;28;20029;-85
2022/02/17 00:44:55;;;;;;;11.20;2.65;;;10.20;77.50;;;;;;5072526;28;20025;-85
2022/02/17 00:47:21;;;;;;;9.48;2.90;;;10.30;77.10;;;;;;5066490;28;20477;-85
2022/02/17 00:49:49;;;;;;;10.18;1.92;;;10.20;77.00;;;;;;5068871;28;20025;-86
2022/02/17 00:52:17;;;;;;;7.60;2.08;;;10.20;77.00;;;;;;5070033;28;20031;-85
2022/02/17 00:54:50;;;;;;;11.57;2.45;;;10.20;76.20;;;;;;5072456;28;20039;-85
2022/02/17 00:57:15;;;;;;;12.35;3.13;;;10.10;76.60;;;;;;5070273;28;20373;-85
2022/02/17 00:59:51;;;;;;;13.10;2.28;;;10.20;75.90;;;;;;5066867;28;20035;-85
2022/02/17 01:02:16;;;;;;;8.43;2.17;;;10.20;75.00;;;;;;5067923;28;20115;-85
2022/02/17 01:04:42;;;;;;;13.85;2.97;;;10.30;74.60;;;;;;5081298;28;20136;-85
2022/02/17 01:07:08;;;;;;;8.40;2.00;;;10.20;75.10;;;;;;5073144;28;20025;-85
2022/02/17 01:09:33;;;;;;;9.88;3.10;;;10.30;74.00;;;;;;5072285;28;20063;-86
2022/02/17 01:11:59;;;;;;;13.52;2.20;;;10.30;73.70;;;;;;5057946;28;20408;-85
2022/02/17 01:14:25;;;;;;;8.48;2.35;;;10.30;73.50;;;;;;5058922;28;20032;-85
2022/02/17 01:16:52;;;;;;;16.65;2.78;;;10.40;72.10;;;;;;5064537;28;20036;-85
2022/02/17 01:19:18;;;;;;;6.57;1.30;;;10.20;73.60;;;;;;5069273;28;20125;-85
2022/02/17 01:21:44;;;;;;;9.23;2.22;;;10.20;72.80;;;;;;5067543;28;20028;-85
2022/02/17 01:24:10;;;;;;;8.32;2.10;;;10.40;71.70;;;;;;5061862;28;20071;-85
2022/02/17 01:26:36;;;;;;;8.15;1.90;;;10.30;73.10;;;;;;5070865;28;20048;-85
2022/02/17 01:29:03;;;;;;;9.77;2.05;;;10.10;73.80;;;;;;5070772;28;21051;-85
2022/02/17 01:31:29;;;;;;;8.35;1.63;;;10.10;73.90;;;;;;5058913;28;20034;-85
2022/02/17 01:33:55;;;;;;;10.48;2.15;;;10.10;74.00;;;;;;5070966;28;20033;-85
2022/02/17 01:36:20;;;;;;;11.40;2.22;;;10.10;72.80;;;;;;5070807;28;20031;-85
2022/02/17 01:38:46;;;;;;;6.57;2.00;;;10.10;73.70;;;;;;5069737;28;20054;-85
2022/02/17 01:41:14;;;;;;;12.38;2.15;;;10.20;72.90;;;;;;5081408;28;20016;-85
2022/02/17 01:43:40;;;;;;;8.32;1.88;;;10.10;74.40;;;;;;5077161;28;20404;-85
2022/02/17 01:46:06;;;;;;;10.57;2.13;;;9.90;76.30;;;;;;5055469;28;20029;-85
2022/02/17 01:48:32;;;;;;;13.35;2.58;;;9.70;77.90;;;;;;5059433;28;20100;-85
2022/02/17 01:50:58;;;;;;;8.27;1.83;;;9.50;79.80;;;;;;5067451;28;20080;-85
2022/02/17 01:53:25;;;;;;;11.35;1.98;;;9.60;79.60;;;;;;5070377;28;20392;-85
2022/02/17 01:55:54;;;;;;;8.38;1.58;;;9.40;80.80;;;;;;5070511;28;20033;-85
2022/02/17 01:58:21;;;;;;;10.23;2.05;;;9.30;80.80;;;;;;5070712;28;20549;-85
2022/02/17 02:00:47;;;;;;;12.52;2.83;;;9.40;80.60;;;;;;5068019;28;20107;-85
2022/02/17 02:03:13;;;;;;;15.82;2.25;;;9.40;80.80;;;;;;5081684;28;20031;-85
2022/02/17 02:05:40;;;;;;;11.48;2.15;;;9.30;80.70;;;;;;5057687;28;20044;-85
2022/02/17 02:08:07;;;;;;;12.20;1.95;;;9.60;77.70;;;;;;5072163;28;20396;-85
2022/02/17 02:10:33;;;;;;;8.38;2.05;;;9.60;77.10;;;;;;5067927;28;20108;-85
2022/02/17 02:13:00;;;;;;;10.80;2.58;;;9.60;77.00;;;;;;5069867;28;20155;-85
2022/02/17 02:15:28;;;;;;;7.38;1.90;;;9.10;81.80;;;;;;5068963;28;20029;-85
2022/02/17 02:17:54;;;;;;;7.00;1.40;;;8.40;85.60;;;;;;5086474;28;20032;-84
2022/02/17 02:20:20;;;;;;;0.25;0.25;;;7.60;86.60;;;;;;5070122;28;20036;-85
2022/02/17 02:22:46;;;;;;;0.73;0.40;;;6.80;91.60;;;;;;5062081;28;20028;-85
2022/02/17 02:25:13;;;;;;;3.67;1.00;;;6.50;92.60;;;;;;5076131;28;20151;-85
2022/02/17 02:27:38;;;;;;;2.50;0.90;;;6.30;93.60;;;;;;5067089;28;20568;-85
2022/02/17 02:30:06;;;;;;;2.55;0.57;;;6.40;92.50;;;;;;5056332;28;20040;-85
2022/02/17 02:32:32;;;;;;;2.70;1.00;;;6.50;92.30;;;;;;5067478;28;20404;-85
2022/02/17 02:34:58;;;;;;;7.80;1.20;;;6.60;91.00;;;;;;5068127;28;20115;-85
2022/02/17 02:37:24;;;;;;;4.72;1.27;;;6.80;90.90;;;;;;5067439;28;20177;-85
2022/02/17 02:39:50;;;;;;;5.03;1.02;;;7.00;91.10;;;;;;5083408;28;20031;-85
2022/02/17 02:42:16;;;;;;;6.10;1.58;;;7.10;90.60;;;;;;5056643;28;20044;-85
2022/02/17 02:44:42;;;;;;;11.57;1.95;;;7.00;91.30;;;;;;5069209;28;20500;-85
2022/02/17 02:47:08;;;;;;;10.40;1.85;;;7.00;91.80;;;;;;5069008;28;20032;-85
2022/02/17 02:49:36;;;;;;;17.17;2.22;;;7.10;91.50;;;;;;5068665;28;20082;-85
2022/02/17 02:52:01;;;;;;;15.02;2.30;;;7.00;91.50;;;;;;5069295;28;20027;-85
2022/02/17 02:54:27;;;;;;;10.25;2.30;;;7.00;92.60;;;;;;5062845;28;20025;-85
2022/02/17 02:56:53;;;;;;;9.25;2.10;;;7.10;91.10;;;;;;5059996;28;20032;-84
2022/02/17 02:59:18;;;;;;;11.00;2.10;;;7.10;91.00;;;;;;5065649;28;20405;-85
2022/02/17 03:01:44;;;;;;;16.75;3.08;;;7.10;89.40;;;;;;5065707;28;20037;-85
2022/02/17 03:04:09;;;;;;;13.32;2.20;;;7.10;90.40;;;;;;5063596;28;20079;-85
2022/02/17 03:06:37;;;;;;;17.20;3.35;;;7.40;88.90;;;;;;5067048;28;20024;-85
2022/02/17 03:09:02;;;;;;;11.38;2.42;;;7.40;89.70;;;;;;5067768;28;20028;-85
2022/02/17 03:11:28;;;;;;;18.10;2.80;;;7.50;88.40;;;;;;5059878;28;20435;-85
2022/02/17 03:13:54;;;;;;;14.50;2.47;;;7.50;90.10;;;;;;5065489;28;20404;-85
2022/02/17 03:16:20;;;;;;;15.40;2.40;;;7.50;90.60;;;;;;5056108;28;20459;-85
2022/02/17 03:18:45;;;;;;;13.07;2.38;;;7.40;89.80;;;;;;5066822;28;20480;-85
2022/02/17 03:21:11;;;;;;;6.97;2.28;;;7.60;87.50;;;;;;5069570;28;20032;-85
2022/02/17 03:23:36;;;;;;;12.75;2.83;;;7.60;87.50;;;;;;5073083;28;20122;-85
2022/02/17 03:26:02;;;;;;;13.93;2.92;;;7.60;89.80;;;;;;5068057;28;20021;-85
2022/02/17 03:28:30;;;;;;;14.00;1.73;;;7.80;86.70;;;;;;5069111;28;20086;-85
2022/02/17 03:30:56;;;;;;;9.38;2.03;;;7.90;84.80;;;;;;5063744;28;20028;-85
2022/02/17 03:33:21;;;;;;;8.00;1.77;;;7.80;85.00;;;;;;5067048;28;20033;-85
2022/02/17 03:35:47;;;;;;;8.40;1.95;;;7.90;82.30;;;;;;5070197;28;20028;-85
2022/02/17 03:38:13;;;;;;;11.00;1.88;;;8.00;80.70;;;;;;5067654;28;20036;-84
2022/02/17 03:40:39;;;;;;;10.82;1.98;;;8.10;80.40;;;;;;5085065;28;20032;-84
2022/02/17 03:43:04;;;;;;;11.10;2.08;;;8.10;79.50;;;;;;5068480;28;20433;-84
2022/02/17 03:45:30;;;;;;;13.82;3.30;;;8.10;78.80;;;;;;5066345;28;20443;-85
2022/02/17 03:47:55;;;;;;;9.15;2.67;;;8.10;79.40;;;;;;5062642;28;20021;-85
2022/02/17 03:50:21;;;;;;;9.05;2.42;;;8.20;78.20;;;;;;5061694;28;20025;-84
2022/02/17 03:52:46;;;;;;;12.95;2.35;;;8.10;79.90;;;;;;5066557;28;20488;-85
2022/02/17 03:55:12;;;;;;;7.05;2.20;;;8.20;77.90;;;;;;5055558;28;20107;-84
2022/02/17 03:57:37;;;;;;;10.45;2.20;;;8.30;76.40;;;;;;5068695;28;20048;-85
2022/02/17 04:00:04;;;;;;;9.35;2.15;;;8.30;75.20;;;;;;5068133;28;20032;-85
2022/02/17 04:02:30;;;;;;;7.32;2.05;;;8.30;75.50;;;;;;5067221;28;20028;-85
2022/02/17 04:04:55;;;;;;;15.18;3.10;;;8.30;75.10;;;;;;5068093;28;20081;-85
2022/02/17 04:07:21;;;;;;;9.43;1.90;;;8.30;75.50;;;;;;5068878;28;20049;-85
2022/02/17 04:09:46;;;;;;;8.70;1.70;;;8.20;75.80;;;;;;5056044;28;20029;-85
2022/02/17 04:12:13;;;;;;;17.58;2.17;;;8.40;73.70;;;;;;5060901;28;20055;-85
2022/02/17 04:14:39;;;;;;;10.98;2.28;;;8.40;73.30;;;;;;5074011;28;20036;-86
2022/02/17 04:17:05;;;;;;;12.95;2.90;;;8.40;73.80;;;;;;5069391;28;20075;-86
2022/02/17 04:19:32;;;;;;;11.68;2.90;;;8.40;73.80;;;;;;5068070;28;20064;-85
2022/02/17 04:21:58;;;;;;;7.78;2.10;;;8.40;73.00;;;;;;5062610;28;20025;-86
2022/02/17 04:24:33;;;;;;;10.50;2.15;;;8.30;74.10;;;;;;5063396;28;20035;-85
2022/02/17 04:26:59;;;;;;;10.85;2.22;;;8.20;74.10;;;;;;5073435;28;20434;-85
2022/02/17 04:29:27;;;;;;;11.82;2.90;;;8.30;73.20;;;;;;5073080;28;20116;-86
2022/02/17 04:31:55;;;;;;;13.95;2.60;;;8.30;73.10;;;;;;5068469;28;20029;-86
2022/02/17 04:34:21;;;;;;;9.35;2.15;;;8.30;73.20;;;;;;5072109;28;20040;-86
2022/02/17 04:36:49;;;;;;;10.00;2.22;;;8.20;72.90;;;;;;5068920;28;20028;-85
2022/02/17 04:39:14;;;;;;;19.20;2.80;;;8.20;73.20;;;;;;5070427;28;20093;-86
2022/02/17 04:44:24;;;;;;;12.30;2.90;;;8.20;73.10;;;;;;5073860;28;20110;-86
2022/02/17 04:46:52;;;;;;;16.08;3.13;;;8.20;73.50;;;;;;5069861;28;20036;-86
2022/02/17 04:49:34;;;;;;;12.07;2.47;;;8.20;73.00;;;;;;5067384;28;20024;-86
2022/02/17 04:51:59;;;;;;;12.55;2.28;;;8.10;73.60;;;;;;5058003;28;20024;-86
2022/02/17 04:54:27;;;;;;;6.70;2.00;;;8.20;73.00;;;;;;5083305;28;20029;-86
2022/02/17 04:56:55;;;;;;;15.73;2.80;;;8.10;73.00;;;;;;5084866;28;20412;-86
2022/02/17 04:59:20;;;;;;;8.20;2.30;;;8.20;73.10;;;;;;5060096;28;20060;-86
2022/02/17 05:01:48;;;;;;;10.27;2.28;;;8.10;73.40;;;;;;5070123;28;20024;-86
2022/02/17 05:04:16;;;;;;;12.27;2.70;;;8.10;73.60;;;;;;5070585;28;20044;-86
2022/02/17 05:06:42;;;;;;;18.35;2.30;;;8.10;73.90;;;;;;5088058;28;20059;-86
2022/02/17 05:09:07;;;;;;;12.68;2.63;;;8.10;73.70;;;;;;5089146;28;20100;-86
2022/02/17 05:11:33;;;;;;;8.18;1.77;;;8.10;73.20;;;;;;5069815;28;20025;-86
2022/02/17 05:13:59;;;;;;;10.40;2.70;;;8.10;73.40;;;;;;5071929;28;20041;-86
2022/02/17 05:16:25;;;;;;;9.43;2.63;;;8.10;74.20;;;;;;5069689;28;20032;-86
2022/02/17 05:18:51;;;;;;;18.58;3.60;;;8.00;73.80;;;;;;5084032;28;20517;-85
2022/02/17 05:21:17;;;;;;;11.18;2.50;;;7.90;75.10;;;;;;5068022;28;20024;-85
2022/02/17 05:23:42;;;;;;;5.82;1.80;;;7.80;75.40;;;;;;5067774;28;20097;-85
2022/02/17 05:26:08;;;;;;;14.45;2.45;;;7.80;75.00;;;;;;5071199;28;20035;-86
2022/02/17 05:28:33;;;;;;;13.27;2.60;;;7.80;75.60;;;;;;5070175;28;20025;-85
2022/02/17 05:30:59;;;;;;;9.98;2.00;;;7.90;74.40;;;;;;5063561;28;20377;-85
2022/02/17 05:33:24;;;;;;;17.08;3.05;;;7.90;73.70;;;;;;5087631;28;20380;-85
2022/02/17 05:35:52;;;;;;;14.55;2.75;;;7.90;74.60;;;;;;5067920;28;20037;-85
2022/02/17 05:38:17;;;;;;;10.43;2.85;;;7.90;73.90;;;;;;5066979;28;20032;-85
2022/02/17 05:40:43;;;;;;;12.80;3.28;;;8.00;73.70;;;;;;5066006;28;20028;-85
2022/02/17 05:43:08;;;;;;;15.45;3.20;;;7.90;74.20;;;;;;5069259;28;20025;-84
2022/02/17 05:45:36;;;;;;;23.48;2.88;;;7.90;74.10;;;;;;5077525;28;20135;-85
2022/02/17 05:48:01;;;;;;;13.88;2.95;;;7.90;74.10;;;;;;5062181;28;20024;-85
2022/02/17 05:50:27;;;;;;;11.52;2.63;;;8.00;73.60;;;;;;5069329;28;20025;-84
2022/02/17 05:52:53;;;;;;;13.85;2.47;;;8.10;73.60;;;;;;5064049;28;20093;-84
2022/02/17 05:55:19;;;;;;;16.27;3.10;;;7.90;74.50;;;;;;5070444;28;20029;-83
2022/02/17 05:57:44;;;;;;;11.13;2.08;;;7.80;75.10;;;;;;5060883;28;20028;-82
2022/02/17 06:00:11;;;;;;;10.75;3.20;;;7.80;75.40;;;;;;5070746;28;20616;-82
2022/02/17 06:02:37;;;;;;;15.00;2.85;;;7.90;74.60;;;;;;5068393;28;20031;-82
2022/02/17 06:05:03;;;;;;;11.93;2.38;;;7.90;74.80;;;;;;5062761;28;20040;-83
2022/02/17 06:07:29;;;;;;;16.35;3.38;;;7.90;74.30;;;;;;5061215;28;20025;-83
2022/02/17 06:09:54;;;;;;;12.70;2.78;;;7.90;74.20;;;;;;5071098;28;20032;-82
2022/02/17 06:12:20;;;;;;;12.48;2.58;;;8.00;73.30;;;;;;5091572;28;20051;-82
2022/02/17 06:14:45;;;;;;;11.50;2.15;;;8.00;73.70;;;;;;5073494;28;20582;-83
2022/02/17 06:17:13;;;;;;;8.73;2.58;;;8.00;74.10;;;;;;5065258;28;20029;-83
2022/02/17 06:19:39;;;;;;;11.38;2.65;;;7.90;74.40;;;;;;5069906;28;20028;-85
2022/02/17 06:22:05;;;;;;;8.75;2.75;;;8.00;74.00;;;;;;5085172;28;20046;-85
2022/02/17 06:24:33;;;;;;;9.73;1.92;;;8.10;73.50;;;;;;5065994;28;20302;-85
2022/02/17 06:27:01;;;;;;;9.73;2.28;;;8.00;74.10;;;;;;5070747;28;20023;-85
2022/02/17 06:29:26;;;;;;;15.18;2.10;;;8.00;75.10;;;;;;5069550;28;20578;-85
2022/02/17 06:31:57;;;;;;;14.27;2.58;;;8.00;74.80;;;;;;5064435;28;20135;-85
2022/02/17 06:34:23;;;;;;;17.10;2.92;;;7.90;75.80;;;;;;5070562;28;20036;-84
2022/02/17 06:36:49;;;;;;;16.00;3.40;;;7.80;76.60;;;;;;5067565;28;20108;-85
2022/02/17 06:39:15;;;;;;;16.35;3.15;;;7.70;76.80;;;;;;5067014;28;20029;-84
2022/02/17 06:41:42;;;;;;;22.15;2.50;;;7.70;76.60;;;;;;5070417;28;20115;-84
2022/02/17 06:44:07;;;;;;;23.23;2.88;;;7.70;76.80;;;;;;5066737;28;20106;-85
2022/02/17 06:46:34;;;;;;;13.68;2.72;;;7.60;76.80;;;;;;5065524;28;20021;-84
2022/02/17 06:49:03;;;;;;;7.97;1.88;;;7.70;76.60;;;;;;5078112;28;20031;-84
2022/02/17 06:51:30;;;;;;;19.15;2.85;;;7.70;76.50;;;;;;5070722;28;20023;-84
2022/02/17 06:53:56;;;;;;;12.10;2.47;;;7.50;77.80;;;;;;5066191;28;20373;-84
2022/02/17 06:56:22;;;;;;;10.98;3.03;;;7.60;76.50;;;;;;5060140;28;20021;-84
2022/02/17 06:58:47;;;;;;;13.80;2.75;;;7.70;76.30;;;;;;5064833;28;20028;-84
2022/02/17 07:01:13;;;;;;;15.93;3.90;;;7.50;79.20;;;;;;5068804;28;20029;-84
2022/02/17 07:03:39;;;;;;;13.82;2.97;;;7.30;80.70;;;;;;5068354;28;20151;-84
2022/02/17 07:06:05;;;;;;;16.77;3.03;;;7.10;89.90;;;;;;5066503;28;20037;-84
2022/02/17 07:08:32;;;;;;;14.00;2.92;;;6.90;84.30;;;;;;5082975;28;20031;-84
2022/02/17 07:10:59;;;;;;;13.13;2.47;;;7.00;82.90;;;;;;5072016;28;20170;-84
2022/02/17 07:13:30;;;;;;;14.55;3.17;;;7.20;81.10;;;;;;5064512;28;20116;-84
2022/02/17 07:15:56;;;;;;;9.70;2.42;;;7.20;81.10;;;;;;5070603;28;20038;-85
2022/02/17 07:18:23;;;;;;;12.60;2.85;;;7.30;79.60;;;;;;5064441;28;20400;-84
2022/02/17 07:20:50;;;;;;;11.63;2.88;;;7.30;80.30;;;;;;5071639;28;20508;-84
2022/02/17 07:23:17;;;;;;;10.88;2.70;;;7.20;81.00;;;;;;5069316;28;20541;-84
2022/02/17 07:25:44;;;;;;;10.23;2.17;;;7.20;80.50;;;;;;5069323;28;20035;-84
2022/02/17 07:28:11;;;;;;;12.77;2.03;;;7.30;80.60;;;;;;5065203;28;20104;-84
2022/02/17 07:30:37;;;;;;;12.13;2.92;;;7.20;80.60;;;;;;5060517;28;20075;-84
2022/02/17 07:33:07;;;;;;;10.55;2.53;;;7.20;80.80;;;;;;5069741;28;20020;-84
2022/02/17 07:35:33;;;;;;;16.83;2.78;;;7.20;81.00;;;;;;5078391;28;20032;-85
2022/02/17 07:37:59;;;;;;;10.20;2.35;;;7.10;81.80;;;;;;5087007;28;20037;-84
2022/02/17 07:40:25;;;;;;;14.00;3.10;;;7.10;81.90;;;;;;5068382;28;20430;-84
2022/02/17 07:42:51;;;;;;;19.63;2.80;;;7.10;81.30;;;;;;5064596;28;20025;-84
2022/02/17 07:45:17;;;;;;;12.75;3.10;;;7.20;81.20;;;;;;5067248;28;20509;-84
2022/02/17 07:47:46;;;;;;;14.75;2.90;;;7.20;80.90;;;;;;5065652;28;20020;-84
2022/02/17 07:50:16;;;;;;;18.55;3.08;;;7.30;80.60;;;;;;5063800;28;20024;-84
2022/02/17 07:52:45;;;;;;;18.98;2.92;;;7.30;80.80;;;;;;5065335;28;20031;-84
2022/02/17 07:55:12;;;;;;;14.73;2.47;;;7.30;80.60;;;;;;5075263;28;20123;-84
2022/02/17 07:57:38;;;;;;;11.35;1.83;;;7.30;80.10;;;;;;5070545;28;20555;-84
2022/02/17 08:00:07;;;;;;;7.53;2.15;;;7.40;78.80;;;;;;5063886;28;20067;-84
2022/02/17 08:02:33;;;;;;;7.38;2.45;;;7.40;78.90;;;;;;5067193;28;21370;-84
2022/02/17 08:04:59;;;;;;;11.07;2.03;;;7.50;78.90;;;;;;5067669;28;20102;-84
2022/02/17 08:07:25;;;;;;;11.77;2.08;;;7.50;78.50;;;;;;5064946;28;20484;-84
2022/02/17 08:09:53;;;;;;;13.55;2.53;;;7.50;78.70;;;;;;5067179;28;20029;-84
2022/02/17 08:12:19;;;;;;;9.77;2.13;;;7.40;79.30;;;;;;5078884;28;20031;-84
2022/02/17 08:14:45;;;;;;;7.38;2.53;;;7.30;79.80;;;;;;5081760;28;20025;-84
2022/02/17 08:17:10;;;;;;;15.02;2.70;;;7.20;80.20;;;;;;5066240;28;20028;-84
2022/02/17 08:19:36;;;;;;;8.40;2.40;;;7.20;79.80;;;;;;5069761;28;20514;-84
2022/02/17 08:22:02;;;;;;;11.88;2.33;;;7.20;79.40;;;;;;5065807;28;20044;-84
2022/02/17 08:24:28;;;;;;;12.98;2.65;;;7.20;79.80;;;;;;5067664;28;20515;-84
2022/02/17 08:26:56;;;;;;;17.65;3.05;;;7.30;79.80;;;;;;5072870;28;20119;-84
2022/02/17 08:29:23;;;;;;;12.55;3.10;;;7.30;79.70;;;;;;5075057;28;20051;-84
2022/02/17 08:31:49;;;;;;;10.48;2.65;;;7.20;81.10;;;;;;5079604;28;20024;-83
2022/02/17 08:34:16;;;;;;;11.02;3.05;;;7.10;82.60;;;;;;5064988;28;20034;-84
2022/02/17 08:36:42;;;;;;;15.75;2.08;;;6.90;84.10;;;;;;5065727;28;20028;-84
2022/02/17 08:39:07;;;;;;;13.40;2.78;;;6.70;85.30;;;;;;5067548;28;20029;-84
2022/02/17 08:41:33;;;;;;;10.43;2.72;;;6.60;85.60;;;;;;5073275;28;20025;-84
2022/02/17 08:43:59;;;;;;;12.45;2.83;;;6.50;86.80;;;;;;5065672;28;20028;-84
2022/02/17 08:46:26;;;;;;;14.20;2.35;;;6.50;86.60;;;;;;5069789;28;20484;-84
2022/02/17 08:48:52;;;;;;;8.80;2.60;;;6.60;85.50;;;;;;5065915;28;20392;-83
2022/02/17 08:51:18;;;;;;;11.68;2.33;;;6.60;85.70;;;;;;5060865;28;20020;-83
2022/02/17 08:53:44;;;;;;;10.13;2.30;;;6.60;85.40;;;;;;5059462;28;20378;-84
2022/02/17 08:56:10;;;;;;;8.10;1.85;;;6.50;86.20;;;;;;5077104;28;20032;-84
2022/02/17 08:58:36;;;;;;;10.13;2.22;;;6.50;86.60;;;;;;5067172;28;20040;-84
2022/02/17 09:01:04;;;;;;;14.55;2.72;;;6.50;86.70;;;;;;5068494;28;20553;-83
2022/02/17 09:03:29;;;;;;;9.93;2.08;;;6.50;87.30;;;;;;5078981;28;20138;-83
2022/02/17 09:05:55;;;;;;;8.90;2.47;;;6.40;87.50;;;;;;5081811;28;20483;-84
2022/02/17 09:08:20;;;;;;;9.93;2.30;;;6.40;87.10;;;;;;5065614;28;20025;-84
2022/02/17 09:10:46;;;;;;;14.07;2.17;;;6.30;87.60;;;;;;5074815;28;20032;-84
2022/02/17 09:13:14;;;;;;;14.15;2.72;;;6.40;87.00;;;;;;5069431;28;20029;-84
2022/02/17 09:15:40;;;;;;;14.93;3.05;;;6.40;87.70;;;;;;5065770;28;20028;-84
2022/02/17 09:18:05;;;;;;;15.88;2.78;;;6.40;87.40;;;;;;5065575;28;20488;-83
2022/02/17 09:20:32;;;;;;;14.05;2.83;;;6.40;87.10;;;;;;5061620;28;20036;-84
2022/02/17 09:22:58;;;;;;;15.32;2.90;;;6.40;87.60;;;;;;5062626;28;20028;-84
2022/02/17 09:25:24;;;;;;;13.52;2.20;;;6.40;88.40;;;;;;5068844;28;20040;-84
2022/02/17 09:27:50;;;;;;;11.52;2.58;;;6.40;88.00;;;;;;5071233;28;20388;-84
2022/02/17 09:30:15;;;;;;;3.55;1.23;;;6.40;87.60;;;;;;5066079;28;20371;-84
2022/02/17 09:32:41;;;;;;;12.15;2.05;;;6.40;87.70;;;;;;5072744;28;20107;-84
2022/02/17 09:35:11;;;;;;;14.63;2.60;;;6.20;89.10;;;;;;5076020;28;20063;-84
2022/02/17 09:37:39;;;;;;;13.05;2.38;;;6.10;90.10;;;;;;5068370;28;20028;-84
2022/02/17 09:40:05;;;;;;;15.18;3.13;;;6.00;89.80;;;;;;5065513;28;20055;-84
2022/02/17 09:42:36;;;;;;;12.50;2.60;;;6.00;90.50;;;;;;5079873;28;20039;-84
2022/02/17 09:45:03;;;;;;;;;;;6.00;90.30;;;;;;5081085;28;20036;-84
2022/02/17 09:47:28;;;;;;;18.92;2.55;;;6.00;90.40;;;;;;5069252;28;19908;-83
2022/02/17 09:49:55;;;;;;;10.90;2.15;;;5.90;90.70;;;;;;5070884;28;20124;-84
2022/02/17 09:52:20;;;;;;;9.38;2.53;;;5.90;90.80;;;;;;5069823;28;20024;-84
2022/02/17 09:54:46;;;;;;;13.23;2.35;;;5.90;90.20;;;;;;5070016;28;20036;-82
2022/02/17 09:57:11;;;;;;;11.70;2.60;;;5.90;90.50;;;;;;5069361;28;20033;-82
2022/02/17 09:59:38;;;;;;;15.30;2.85;;;5.90;90.60;;;;;;5070961;28;20117;-82
2022/02/17 10:02:11;;;;;;;21.13;3.08;;;6.00;91.20;;;;;;5066852;28;20024;-83
2022/02/17 10:04:36;;;;;;;11.57;2.88;;;6.00;90.70;;;;;;5079941;28;20045;-82
2022/02/17 10:07:06;;;;;;;14.25;2.90;;;6.00;90.30;;;;;;5066854;28;20048;-82
2022/02/17 10:09:36;;;;;;;11.70;2.65;;;6.10;90.00;;;;;;5069978;28;20029;-82
2022/02/17 10:12:02;;;;;;;6.22;2.45;;;6.00;91.10;;;;;;5067932;28;20021;-82
2022/02/17 10:14:27;;;;;;;5.38;1.55;;;5.80;91.50;;;;;;5066383;28;20035;-82
2022/02/17 10:17:04;;;;;;;0.32;0.32;;;5.70;91.50;;;;;;5066384;28;20149;-82
2022/02/17 10:19:42;;;;;;;0.13;0.13;;;5.60;92.10;;;;;;5066333;28;20020;-82
2022/02/17 10:22:11;;;;;;;9.05;1.33;;;5.60;92.50;;;;;;5068495;28;20021;-81
2022/02/17 10:24:45;;;;;;;0.20;0.20;;;5.60;92.10;;;;;;5070156;28;20051;-82
2022/02/17 10:27:26;;;;;;;0.50;0.50;;;5.60;92.60;;;;;;5068197;28;20021;-82
2022/02/17 10:30:18;;;;;;;0.10;0.10;;;5.60;92.40;;;;;;5068630;28;20036;-82
2022/02/17 10:32:56;;;;;;;1.55;0.90;;;5.60;92.10;;;;;;5065846;28;20025;-82
2022/02/17 10:35:23;;;;;;;4.45;0.90;;;5.60;92.60;;;;;;5068772;28;20020;-82
2022/02/17 10:37:53;;;;;;;0.25;0.25;;;5.50;92.90;;;;;;5070429;28;20060;-82
2022/02/17 10:40:20;;;;;;;;;;;5.60;92.90;;;;;;5070845;28;20029;-82
2022/02/17 10:42:58;;;;;;;0.10;0.10;;;5.60;92.80;;;;;;5067130;28;20502;-83
2022/02/17 10:45:24;;;;;;;0.15;0.15;;;5.60;92.80;;;;;;5081017;28;20035;-83
2022/02/17 10:47:50;;;;;;;0.75;0.75;;;5.60;92.70;;;;;;5073239;28;20024;-82
2022/02/17 10:50:19;;;;;;;0.55;0.55;;;5.70;93.00;;;;;;5066454;28;20567;-83
2022/02/17 10:52:46;;;;;;;0.20;0.20;;;5.70;92.20;;;;;;5082473;28;20016;-82
2022/02/17 10:55:21;;;;;;;0.20;0.20;;;5.70;91.90;;;;;;5068840;28;20103;-82
2022/02/17 10:57:47;;;;;;;7.70;1.15;;;5.60;91.60;;;;;;5084790;28;20102;-82
2022/02/17 11:00:19;;;;;;;9.13;1.70;;;5.70;91.30;;;;;;5061090;28;20063;-81
2022/02/17 11:02:47;;;;;;;9.45;2.13;;;5.70;91.40;;;;;;5075219;28;20062;-81
2022/02/17 11:05:13;;;;;;;14.20;2.15;;;5.70;91.40;;;;;;5070376;28;20127;-82
2022/02/17 11:07:40;;;;;;;12.25;2.22;;;5.70;91.70;;;;;;5069628;28;20021;-83
2022/02/17 11:10:08;;;;;;;14.77;2.22;;;5.80;90.80;;;;;;5064794;28;20480;-83
2022/02/17 11:12:33;;;;;;;11.55;2.33;;;6.00;91.10;;;;;;5066589;28;20028;-83
2022/02/17 11:15:00;;;;;;;13.25;3.13;;;6.00;90.80;;;;;;5065662;28;20093;-83
2022/02/17 11:17:27;;;;;;;12.90;2.53;;;6.00;91.30;;;;;;5067800;28;20024;-83
2022/02/17 11:19:53;;;;;;;14.63;3.15;;;6.00;90.70;;;;;;5065802;28;20058;-83
2022/02/17 11:22:19;;;;;;;5.55;2.00;;;6.10;90.20;;;;;;5066158;28;20025;-83
2022/02/17 11:24:49;;;;;;;9.80;2.03;;;6.10;89.80;;;;;;5062636;28;20484;-83
2022/02/17 11:27:15;;;;;;;15.85;3.38;;;6.20;88.70;;;;;;5064608;28;20046;-83
2022/02/17 11:29:42;;;;;;;12.02;2.08;;;6.30;87.90;;;;;;5068690;28;20655;-83
2022/02/17 11:32:14;;;;;;;13.73;2.65;;;6.50;88.50;;;;;;5066604;28;20050;-83
2022/02/17 11:34:46;;;;;;;18.85;3.63;;;6.60;87.80;;;;;;5070028;28;20028;-83
2022/02/17 11:37:20;;;;;;;17.58;2.53;;;6.60;87.20;;;;;;5064354;28;20036;-83
2022/02/17 11:40:08;;;;;;;8.43;2.28;;;6.60;87.70;;;;;;5081035;28;20485;-83
2022/02/17 11:42:45;;;;;;;13.05;2.40;;;6.80;86.40;;;;;;5063242;28;20032;-83
2022/02/17 11:45:21;;;;;;;15.15;3.30;;;7.00;85.00;;;;;;5087496;28;20036;-83
2022/02/17 11:48:07;;;;;;;17.75;2.50;;;7.10;86.00;;;;;;5065016;28;20082;-83
2022/02/17 11:50:36;;;;;;;12.68;2.67;;;7.10;83.50;;;;;;5066566;28;20043;-83
2022/02/17 11:53:24;;;;;;;13.43;3.30;;;7.10;82.60;;;;;;5068368;28;20380;-83
2022/02/17 11:55:52;;;;;;;9.82;2.45;;;7.30;83.80;;;;;;5068567;28;20063;-83
2022/02/17 11:58:45;;;;;;;6.30;1.35;;;7.50;83.20;;;;;;5068896;28;20059;-83
2022/02/17 12:01:26;;;;;;;13.25;1.85;;;7.80;80.90;;;;;;5062718;28;20040;-83
2022/02/17 12:04:17;;;;;;;15.63;1.85;;;8.00;80.40;;;;;;5058876;28;20044;-83
2022/02/17 12:06:47;;;;;;;14.00;1.65;;;8.10;79.40;;;;;;5062724;28;20459;-83
2022/02/17 12:09:32;;;;;;;13.18;3.15;;;8.10;79.30;;;;;;5061242;28;20093;-83
2022/02/17 12:12:27;;;;;;;12.45;2.78;;;8.00;78.40;;;;;;5079341;28;20100;-84
2022/02/17 12:14:54;;;;;;;12.10;2.13;;;7.90;79.50;;;;;;5064746;28;20033;-83
2022/02/17 12:17:27;;;;;;;11.25;2.33;;;7.80;79.40;;;;;;5067333;28;20033;-83
2022/02/17 12:20:05;;;;;;;7.55;1.90;;;7.40;80.20;;;;;;5068389;28;20071;-83
2022/02/17 12:22:31;;;;;;;11.07;1.80;;;7.10;81.30;;;;;;5059695;28;20029;-83
2022/02/17 12:25:24;;;;;;;13.80;2.20;;;6.90;83.10;;;;;;5071549;28;20033;-83
2022/02/17 12:27:58;;;;;;;8.57;2.30;;;6.70;85.50;;;;;;5067275;28;20017;-84
2022/02/17 12:30:25;;;;;;;16.50;2.55;;;6.70;86.30;;;;;;5064892;28;20037;-85
2022/02/17 12:33:12;;;;;;;8.18;1.70;;;7.20;85.80;;;;;;5067931;28;20028;-84
2022/02/17 12:35:51;;;;;;;6.22;1.75;;;7.00;83.10;;;;;;5063272;28;20453;-84
2022/02/17 12:38:21;;;;;;;12.13;2.05;;;6.90;82.60;;;;;;5063680;28;20029;-82
2022/02/17 12:40:46;;;;;;;8.55;2.00;;;7.10;82.30;;;;;;5071442;28;20066;-82
2022/02/17 12:43:28;;;;;;;12.45;2.25;;;7.20;80.50;;;;;;5073076;28;20056;-82
2022/02/17 12:45:55;;;;;;;10.55;2.25;;;7.30;80.60;;;;;;5071405;28;20037;-82
2022/02/17 12:48:20;;;;;;;9.52;1.90;;;7.20;81.00;;;;;;5072613;28;20429;-82
2022/02/17 12:50:46;;;;;;;9.63;2.17;;;7.60;80.50;;;;;;5073046;28;20033;-82
2022/02/17 12:53:12;;;;;;;10.73;2.25;;;7.50;80.40;;;;;;5072009;28;20085;-82
2022/02/17 12:55:42;;;;;;;10.80;2.42;;;7.50;79.90;;;;;;5070750;28;20032;-82